• Join FlightAware (Why Join?)
  • Login
  • US Flag 
10:04AM EST


 

Airport Tracker/Info


-or-


 

Live Flight TrackerFlight Track Log ✈ TCF3494 ✈ 22-Nov-2013 ✈ KSLC - KORD

Flight Track Log - Related Links

Times and Time Zones

All times are in EST time to prevent confusion due to time zone crossing. See the TCF3494 flight status page for this flight to view local times or setup timezone preferences in your user account.

Time Position Orientation Groundspeed Altitude Reporting Facility
EST Latitude Longitude Course Direction KTS MPH feet Rate Location/Type
06:43PM 40.8769 -111.9867 356° North 208 239 7,000  Level Salt Lake Center
06:44PM 40.8950 -111.9892 354° North 217 250 7,500 2,460 Climbing Salt Lake Center
06:44PM 40.9411 -111.9958 354° North 255 293 9,300 2,700 Climbing Salt Lake Center
06:45PM 41.0341 -111.3923 82° East  Level FlightAware Approximate
06:45PM 40.9700 -111.9978 357° North 268 308 10,300  Level Salt Lake Center
06:46PM 41.0507 -111.2260 82° East  Level FlightAware Approximate
06:46PM 41.0461 -112.0022 357° North 278 320 13,400  Level Salt Lake Center
06:47PM 41.0680 -111.0599 75° East  Level FlightAware Approximate
06:47PM 41.0661 -111.9100 74° East 284 327 15,700  Level Salt Lake Center
06:48PM 41.1103 -110.9023 66° East  Level FlightAware Approximate
06:48PM 41.0622 -111.7906 92° East 305 351 17,900  Level Salt Lake Center
06:49PM 41.0578 -111.6706 93° East 318 366 19,300 1,200 Climbing Salt Lake Center
06:50PM 41.0525 -111.5331 93° East 374 430 20,400 1,320 Climbing Salt Lake Center
06:51PM 41.0486 -111.3894 92° East 391 450 22,100 1,440 Climbing Salt Lake Center
06:52PM 41.0611 -111.2414 84° East 405 466 23,400 1,260 Climbing Salt Lake Center
06:53PM 41.0758 -111.0833 83° East 428 493 24,700 1,260 Climbing Salt Lake Center
06:54PM 41.1161 -110.9128 73° East 442 509 26,100 1,260 Climbing Salt Lake Center
06:55PM 41.1461 -110.7292 78° East 456 525 27,400 1,140 Climbing Salt Lake Center
06:56PM 41.1728 -110.5700 77° East 461 531 28,500 960 Climbing Salt Lake Center
06:57PM 41.1981 -110.4075 78° East 468 539 29,400 840 Climbing Salt Lake Center
06:58PM 41.2292 -110.2150 78° East 479 551 30,300 1,020 Climbing Salt Lake Center
06:59PM 41.2558 -110.0494 78° East 480 552 31,600 1,260 Climbing Salt Lake Center
07:00PM 41.2853 -109.8608 78° East 468 539 33,000 1,140 Climbing Salt Lake Center
07:01PM 41.3100 -109.7008 78° East 464 534 34,000 840 Climbing Salt Lake Center
07:02PM 41.3350 -109.5417 78° East 461 531 34,800 480 Climbing Salt Lake Center
07:03PM 41.3628 -109.3547 79° East 461 531 35,000 60 Climbing Salt Lake Center
07:04PM 41.3864 -109.1886 79° East 477 549 35,000  Level Salt Lake Center
07:05PM 41.4175 -108.9964 78° East 493 567 35,000  Level Salt Lake Center
07:06PM 41.4461 -108.7992 79° East 491 565 35,000  Level Salt Lake Center
07:07PM 41.4706 -108.6286 79° East 491 565 35,000  Level Salt Lake Center
07:08PM 41.4953 -108.4575 79° East 491 565 35,000  Level Salt Lake Center
07:09PM 41.5156 -108.3114 79° East 494 568 35,000  Level Denver Center
07:10PM 41.5397 -108.1403 79° East 493 567 35,000  Level Denver Center
07:11PM 41.5758 -107.8811 79° East 497 572 35,000  Level Salt Lake Center
07:12PM 41.5914 -107.7647 80° East 497 572 35,000 120 Level Denver Center
07:13PM 41.6194 -107.5606 80° East 499 574 35,300 480 Climbing Denver Center
07:14PM 41.6425 -107.3883 80° East 495 570 36,100 600 Climbing Denver Center
07:15PM 41.6656 -107.2161 80° East 493 567 36,600 420 Climbing Denver Center
07:16PM 41.6919 -107.0150 80° East 493 567 37,000 180 Climbing Denver Center
07:17PM 41.7136 -106.8394 81° East 499 574 37,000  Level Denver Center
07:18PM 41.7403 -106.6325 80° East 505 581 37,000  Level Denver Center
07:19PM 41.7633 -106.4564 80° East 508 585 37,000  Level Denver Center
07:20PM 41.7875 -106.2453 81° East 513 590 37,000  Level Denver Center
07:21PM 41.8089 -106.0650 81° East 512 589 37,000  Level Denver Center
07:22PM 41.8356 -105.8517 80° East 519 597 37,000  Level Denver Center
07:23PM 41.8581 -105.6678 81° East 523 602 37,000  Level Denver Center
07:24PM 41.8822 -105.4506 81° East 527 606 37,000  Level Denver Center
07:25PM 41.9028 -105.2656 81° East 526 605 37,000  Level Denver Center
07:27PM 41.9244 -105.0764 81° East 532 612 37,000  Level Denver Center
07:28PM 41.9494 -104.8569 81° East 535 616 37,000  Level Denver Center
07:29PM 41.9689 -104.6669 82° East 537 618 37,000  Level Denver Center
07:30PM 41.9928 -104.4450 82° East 542 624 37,000  Level Denver Center
07:31PM 42.0122 -104.2547 82° East 541 623 37,000  Level Denver Center
07:32PM 42.0356 -104.0333 82° East 540 621 37,000  Level Denver Center
07:33PM 42.0547 -103.8425 82° East 540 621 37,000  Level Denver Center
07:34PM 42.0781 -103.6172 82° East 545 627 37,000  Level Denver Center
07:35PM 42.0964 -103.4261 83° East 541 623 37,000  Level Denver Center
07:36PM 42.1178 -103.2000 83° East 546 628 37,000  Level Denver Center
07:37PM 42.1367 -103.0036 83° East 550 633 37,000  Level Denver Center
07:38PM 42.1564 -102.7753 83° East 551 634 37,000  Level Denver Center
07:39PM 42.1747 -102.5794 83° East 551 634 37,000  Level Denver Center
07:40PM 42.1917 -102.3806 83° East 557 641 37,000  Level Denver Center
07:41PM 42.2122 -102.1514 83° East 556 640 37,000  Level Denver Center
07:42PM 42.2300 -101.9497 83° East 561 646 37,000  Level Denver Center
07:43PM 42.2486 -101.7172 84° East 560 644 37,000  Level Denver Center
07:44PM 42.2650 -101.5153 84° East 562 647 37,000  Level Denver Center
07:45PM 42.2833 -101.2794 84° East 563 648 37,000  Level Denver Center
07:46PM 42.2986 -101.0744 84° East 569 655 37,000  Level Denver Center
07:47PM 42.3172 -100.8361 84° East 571 657 37,000  Level Denver Center
07:48PM 42.3322 -100.6297 84° East 574 661 37,000  Level Denver Center
07:49PM 42.3467 -100.4236 85° East 576 663 37,000  Level Denver Center
07:50PM 42.3628 -100.1817 85° East 577 664 37,000  Level Denver Center
07:51PM 42.3775 -99.9700 85° East 579 666 37,000  Level Minneapolis Center
07:52PM 42.3922 -99.7528 85° East 580 667 37,000  Level Minneapolis Center
07:53PM 42.4061 -99.5328 85° East 584 672 37,000  Level Minneapolis Center
07:54PM 42.4194 -99.3100 85° East 586 674 37,000  Level Denver Center
07:55PM 42.4325 -99.0897 85° East 587 676 37,000  Level Minneapolis Center
07:56PM 42.4447 -98.8686 86° East 588 677 37,000  Level Minneapolis Center
07:57PM 42.4594 -98.6006 86° East 591 680 37,000  Level Minneapolis Center
07:58PM 42.4714 -98.3744 86° East 596 686 37,000  Level Minneapolis Center
07:59PM 42.4833 -98.1492 86° East 597 687 37,000  Level Minneapolis Center
08:00PM 42.4942 -97.9242 86° East 597 687 37,000  Level Minneapolis Center
08:02PM 42.5050 -97.6886 86° East 600 690 37,000  Level Minneapolis Center
08:03PM 42.5158 -97.4619 86° East 601 692 37,000  Level Minneapolis Center
08:04PM 42.5256 -97.2356 87° East 600 690 37,000  Level Minneapolis Center
08:05PM 42.5350 -97.0092 87° East 599 689 37,000  Level Minneapolis Center
08:06PM 42.5439 -96.7822 87° East 601 692 37,000  Level Minneapolis Center
08:07PM 42.5519 -96.5561 87° East 600 690 37,000  Level Minneapolis Center
08:08PM 42.5594 -96.3294 87° East 600 690 37,000  Level Minneapolis Center
08:09PM 42.5694 -96.0575 87° East 600 690 37,000  Level Minneapolis Center
08:10PM 42.5761 -95.8308 88° East 601 692 37,000  Level Minneapolis Center
08:11PM 42.5817 -95.6008 88° East 605 696 37,000  Level Minneapolis Center
08:12PM 42.5878 -95.3706 88° East 609 701 37,000  Level Minneapolis Center
08:13PM 42.5936 -95.1436 88° East 604 695 37,000 -420 Level Minneapolis Center
08:14PM 42.5994 -94.9139 88° East 605 696 36,200 -900 Descending Minneapolis Center
08:15PM 42.6042 -94.6800 88° East 614 707 35,200 -420 Descending Minneapolis Center
08:17PM 42.6061 -94.1769 90° East 613 705 35,000 -120 Descending Minneapolis Center
08:18PM 42.5992 -93.9478 92° East 612 704 35,000  Level Minneapolis Center
08:19PM 42.5908 -93.7192 93° East 612 704 35,000  Level Minneapolis Center
08:20PM 42.5811 -93.4922 93° East 611 703 35,000  Level Minneapolis Center
08:21PM 42.5767 -93.2625 91° East 613 705 35,000  Level Minneapolis Center
08:22PM 42.5678 -93.0361 93° East 610 702 35,000 -60 Level Minneapolis Center
08:23PM 42.5564 -92.7622 93° East 611 703 34,900 -600 Descending Minneapolis Center
08:24PM 42.5458 -92.5336 94° East 611 703 33,800 -900 Descending Minneapolis Center
08:25PM 42.5319 -92.2608 94° East 609 701 33,000 -600 Descending Chicago Center
08:26PM 42.5231 -92.0364 93° East 605 696 32,600 -780 Descending Chicago Center
08:27PM 42.5261 -91.8164 89° East 598 688 31,500 -840 Descending Chicago Center
08:28PM 42.5267 -91.5978 90° East 597 687 31,000 -300 Descending Chicago Center
08:29PM 42.5275 -91.3325 90° East 601 692 31,000  Level Chicago Center
08:30PM 42.5261 -91.1117 90° East 599 689 31,000  Level Chicago Center
08:31PM 42.5247 -90.8878 90° East 602 693 31,000  Level Chicago Center
08:33PM 42.5256 -90.6625 90° East 604 695 31,000  Level Chicago Center
08:34PM 42.5236 -90.4408 91° East 598 688 31,000 -1,080 Level Chicago Center
08:35PM 42.5208 -90.1856 91° East 575 662 28,800 -2,280 Descending Chicago Center
08:36PM 42.5197 -89.9789 90° East 557 641 26,400 -2,220 Descending Chicago Center
08:37PM 42.5167 -89.7981 91° East 536 617 24,300 -1,920 Descending Chicago Center
08:38PM 42.5139 -89.5836 91° East 478 550 22,500 -1,560 Descending Chicago Center
08:39PM 42.5125 -89.4083 91° East 468 539 21,100 -1,680 Descending Chicago Center
08:40PM 42.5089 -89.2389 92° East 457 526 19,100 -1,800 Descending Chicago Center
08:41PM 42.5075 -89.0783 91° East 434 499 17,500 -1,920 Descending Chicago Center
08:42PM 42.5014 -88.9250 93° East 418 481 15,200 -2,280 Descending Chicago Center
08:43PM 42.4561 -88.7661 111° Southeast 381 438 12,800 -2,040 Descending Chicago Center
08:44PM 42.4211 -88.6492 112° Southeast 346 398 11,100 -900 Descending Chicago Center
08:45PM 42.3869 -88.5394 113° Southeast 323 372 11,000 -60 Descending Chicago Center
08:46PM 42.3539 -88.4283 112° Southeast 320 368 11,000  Level Chicago Center
08:47PM 42.3069 -88.3356 124° Southeast 320 368 11,000  Level Chicago Center
08:48PM 42.2419 -88.2228 128° Southeast 317 365 11,000 -180 Level Chicago Center
08:49PM 42.1922 -88.1436 130° Southeast 285 328 10,700 -780 Descending Chicago Center
08:50PM 42.1278 -88.1236 167° South 238 274 9,400 -1,260 Descending Chicago Center
08:51PM 42.0833 -88.1167 173° South 232 267 8,800 -960 Descending Chicago TRACON
08:52PM 42.0333 -88.0667 143° Southeast 236 272 8,000 -900 Descending Chicago TRACON
08:53PM 41.9833 -88.0167 143° Southeast 243 280 7,100 -480 Descending Chicago TRACON
08:54PM 41.9167 -87.9500 143° Southeast 249 287 7,000 -60 Descending Chicago TRACON
08:55PM 41.8833 -87.8833 124° Southeast 241 277 7,000 -240 Level Chicago TRACON
08:56PM 41.8833 -87.8000 90° East 208 239 6,600 -900 Descending Chicago TRACON
08:57PM 41.8833 -87.7333 90° East 208 239 5,300 -1,260 Descending Chicago TRACON
08:57PM 41.8739 -87.6850 105° East 211 243 4,600 -1,080 Descending Chicago Center
08:58PM 41.9022 -87.6503 42° Northeast 197 227 3,500 -780 Descending Chicago Center
08:59PM 41.9486 -87.6783 336° Northwest 178 205 3,000 -300 Descending Chicago Center
09:00PM 41.9669 -87.7336 294° West 176 203 3,000 -480 Level Chicago Center
09:01PM 41.9658 -87.7986 269° West 181 208 2,100 -780 Descending Chicago Center
09:02PM 41.9650 -87.8497 269° West 162 186 1,400 -420 Descending Chicago Center
09:04PM 41.9678 -87.8950 275° West 155 178 1,300 -120 Descending Chicago Center